JBU768 TJPS-KMCO
Flight info
| Callsign | JBU768 |
|---|---|
| Flight time | 2h 40m |
| Altitude | 34000 |
| Route | WLFRD2 BQN R763 HARBG Y421 OCTAL MUNGI1 |
| Aircraft | A320/M-SDE3FGHIRWY/LB1 |
Departure
| Time | 2026-04-15 02:14 |
|---|---|
| Airport | Mercedita International Airport (TJPS) |
Arrival
| Time | 2026-04-15 04:54 |
|---|---|
| Airport | Orlando International Airport (KMCO) |
| Time | Latitude | Longitude | Altitude | Speed | Heading |
|---|---|---|---|---|---|
| 2026-04-15 01:35 | 18.01036 | -66.56273 | 37 ft | 0 kts | 319° |
| 2026-04-15 02:04 | 18.01020 | -66.56259 | 31 ft | 4 kts | 319° |
| 2026-04-15 02:04 | 18.01000 | -66.56241 | 27 ft | 4 kts | 306° |
| 2026-04-15 02:05 | 18.00988 | -66.56236 | 26 ft | 4 kts | 211° |
| 2026-04-15 02:05 | 18.00963 | -66.56241 | 25 ft | 4 kts | 192° |
| 2026-04-15 02:05 | 18.00961 | -66.56242 | 27 ft | 0 kts | 199° |
| 2026-04-15 02:09 | 18.00960 | -66.56242 | 28 ft | 1 kts | 199° |
| 2026-04-15 02:09 | 18.00949 | -66.56241 | 30 ft | 5 kts | 172° |
| 2026-04-15 02:09 | 18.00915 | -66.56180 | 20 ft | 15 kts | 108° |
| 2026-04-15 02:10 | 18.00880 | -66.56068 | 20 ft | 13 kts | 109° |
| 2026-04-15 02:10 | 18.00847 | -66.56052 | 19 ft | 7 kts | 188° |
| 2026-04-15 02:10 | 18.00841 | -66.56054 | 19 ft | 0 kts | 195° |
| 2026-04-15 02:10 | 18.00840 | -66.56054 | 19 ft | 1 kts | 195° |
| 2026-04-15 02:11 | 18.00814 | -66.56062 | 19 ft | 10 kts | 196° |
| 2026-04-15 02:11 | 18.00784 | -66.56156 | 20 ft | 23 kts | 287° |
| 2026-04-15 02:11 | 18.00839 | -66.56329 | 38 ft | 26 kts | 288° |
| 2026-04-15 02:11 | 18.00904 | -66.56536 | 39 ft | 34 kts | 288° |
| 2026-04-15 02:12 | 18.00984 | -66.56800 | 38 ft | 42 kts | 288° |
| 2026-04-15 02:12 | 18.01077 | -66.57093 | 36 ft | 34 kts | 288° |
| 2026-04-15 02:12 | 18.01146 | -66.57319 | 36 ft | 25 kts | 287° |
| 2026-04-15 02:12 | 18.01207 | -66.57446 | 35 ft | 12 kts | 342° |
| 2026-04-15 02:13 | 18.01279 | -66.57481 | 36 ft | 12 kts | 287° |
| 2026-04-15 02:13 | 18.01213 | -66.57514 | 34 ft | 14 kts | 144° |
| 2026-04-15 02:13 | 18.01182 | -66.57433 | 35 ft | 18 kts | 108° |
| 2026-04-15 02:13 | 18.01059 | -66.57033 | 38 ft | 101 kts | 108° |
| 2026-04-15 02:14 | 18.00770 | -66.56099 | 29 ft | 167 kts | 107° |
| 2026-04-15 02:14 | 18.00396 | -66.54899 | 726 ft | 174 kts | 107° |
| 2026-04-15 02:14 | 18.00018 | -66.53656 | 1593 ft | 181 kts | 107° |
| 2026-04-15 02:14 | 17.99619 | -66.52344 | 2044 ft | 200 kts | 107° |
| 2026-04-15 02:15 | 17.99169 | -66.50866 | 2306 ft | 224 kts | 107° |
| 2026-04-15 02:15 | 17.98660 | -66.49221 | 2683 ft | 248 kts | 108° |
| 2026-04-15 02:15 | 17.98102 | -66.47435 | 3292 ft | 262 kts | 108° |
| 2026-04-15 02:15 | 17.97524 | -66.45598 | 4113 ft | 267 kts | 108° |
| 2026-04-15 02:16 | 17.96933 | -66.43730 | 4971 ft | 272 kts | 106° |
| 2026-04-15 02:16 | 17.96808 | -66.41744 | 5755 ft | 278 kts | 79° |
| 2026-04-15 02:16 | 17.97562 | -66.39876 | 5690 ft | 283 kts | 53° |
| 2026-04-15 02:16 | 17.99041 | -66.38517 | 7283 ft | 287 kts | 26° |
| 2026-04-15 02:17 | 18.00932 | -66.37963 | 8053 ft | 289 kts | 1° |
| 2026-04-15 02:17 | 18.02895 | -66.38335 | 8816 ft | 290 kts | 334° |
| 2026-04-15 02:17 | 18.04508 | -66.39597 | 9578 ft | 291 kts | 309° |
| 2026-04-15 02:17 | 18.05757 | -66.41283 | 10304 ft | 295 kts | 306° |
| 2026-04-15 02:18 | 18.07042 | -66.43054 | 10539 ft | 317 kts | 306° |
| 2026-04-15 02:18 | 18.08424 | -66.44968 | 10686 ft | 339 kts | 306° |
| 2026-04-15 02:18 | 18.09875 | -66.46978 | 11119 ft | 349 kts | 306° |
| 2026-04-15 02:18 | 18.11359 | -66.49026 | 11742 ft | 353 kts | 307° |
| 2026-04-15 02:19 | 18.12859 | -66.51088 | 12397 ft | 357 kts | 307° |
| 2026-04-15 02:19 | 18.14376 | -66.53169 | 13046 ft | 360 kts | 307° |
| 2026-04-15 02:19 | 18.15907 | -66.55269 | 13708 ft | 363 kts | 307° |
| 2026-04-15 02:19 | 18.17450 | -66.57393 | 14259 ft | 366 kts | 307° |
| 2026-04-15 02:20 | 18.18982 | -66.59504 | 14814 ft | 369 kts | 307° |
| 2026-04-15 02:20 | 18.20547 | -66.61660 | 15373 ft | 372 kts | 307° |
| 2026-04-15 02:20 | 18.22124 | -66.63832 | 15929 ft | 375 kts | 307° |
| 2026-04-15 02:20 | 18.23712 | -66.66024 | 16475 ft | 378 kts | 307° |
| 2026-04-15 02:21 | 18.25316 | -66.68239 | 17043 ft | 381 kts | 307° |
| 2026-04-15 02:21 | 18.26932 | -66.70464 | 17627 ft | 384 kts | 307° |
| 2026-04-15 02:21 | 18.28565 | -66.72709 | 18212 ft | 387 kts | 307° |
| 2026-04-15 02:21 | 18.30211 | -66.74974 | 18732 ft | 390 kts | 307° |
| 2026-04-15 02:22 | 18.31862 | -66.77252 | 19288 ft | 392 kts | 307° |
| 2026-04-15 02:22 | 18.33517 | -66.79541 | 19859 ft | 394 kts | 307° |
| 2026-04-15 02:22 | 18.35180 | -66.81841 | 20431 ft | 396 kts | 307° |
| 2026-04-15 02:23 | 18.38511 | -66.86442 | 21501 ft | 399 kts | 307° |
| 2026-04-15 02:23 | 18.40195 | -66.88771 | 22014 ft | 401 kts | 307° |
| 2026-04-15 02:23 | 18.41886 | -66.91111 | 22552 ft | 401 kts | 307° |
| 2026-04-15 02:23 | 18.43559 | -66.93423 | 23061 ft | 401 kts | 307° |
| 2026-04-15 02:24 | 18.45265 | -66.95783 | 23554 ft | 403 kts | 307° |
| 2026-04-15 02:24 | 18.46965 | -66.98138 | 23945 ft | 404 kts | 307° |
| 2026-04-15 02:24 | 18.48672 | -67.00506 | 24318 ft | 406 kts | 307° |
| 2026-04-15 02:24 | 18.50381 | -67.02875 | 24672 ft | 407 kts | 307° |
| 2026-04-15 02:25 | 18.52099 | -67.05254 | 25026 ft | 409 kts | 307° |
| 2026-04-15 02:25 | 18.53827 | -67.07646 | 25371 ft | 410 kts | 307° |
| 2026-04-15 02:25 | 18.55560 | -67.10044 | 25710 ft | 412 kts | 307° |
| 2026-04-15 02:25 | 18.57302 | -67.12459 | 26042 ft | 413 kts | 306° |
| 2026-04-15 02:26 | 18.59044 | -67.14876 | 26370 ft | 415 kts | 306° |
| 2026-04-15 02:26 | 18.60203 | -67.16486 | 26583 ft | 416 kts | 306° |
| 2026-04-15 02:26 | 18.61953 | -67.18922 | 26905 ft | 418 kts | 306° |
| 2026-04-15 02:26 | 18.63711 | -67.21368 | 27220 ft | 419 kts | 306° |
| 2026-04-15 02:27 | 18.65480 | -67.23828 | 27545 ft | 420 kts | 306° |
| 2026-04-15 02:27 | 18.67247 | -67.26287 | 27866 ft | 422 kts | 306° |
| 2026-04-15 02:27 | 18.69024 | -67.28756 | 28193 ft | 423 kts | 306° |
| 2026-04-15 02:27 | 18.70807 | -67.31233 | 28507 ft | 425 kts | 306° |
| 2026-04-15 02:28 | 18.72601 | -67.33730 | 28811 ft | 426 kts | 306° |
| 2026-04-15 02:28 | 18.74386 | -67.36216 | 29233 ft | 425 kts | 306° |
| 2026-04-15 02:28 | 18.76169 | -67.38696 | 29686 ft | 423 kts | 306° |
| 2026-04-15 02:28 | 18.77920 | -67.41131 | 30126 ft | 421 kts | 306° |
| 2026-04-15 02:29 | 18.79687 | -67.43592 | 30510 ft | 419 kts | 305° |
| 2026-04-15 02:29 | 18.81447 | -67.46048 | 30915 ft | 417 kts | 305° |
| 2026-04-15 02:29 | 18.83189 | -67.48486 | 31329 ft | 415 kts | 305° |
| 2026-04-15 02:29 | 18.84922 | -67.50916 | 31752 ft | 413 kts | 304° |
| 2026-04-15 02:30 | 18.86644 | -67.53328 | 32184 ft | 410 kts | 304° |
| 2026-04-15 02:30 | 18.88359 | -67.55724 | 32631 ft | 407 kts | 304° |
| 2026-04-15 02:30 | 18.90063 | -67.58102 | 33079 ft | 405 kts | 304° |
| 2026-04-15 02:30 | 18.91758 | -67.60469 | 33524 ft | 403 kts | 304° |
| 2026-04-15 02:31 | 18.93446 | -67.62827 | 33902 ft | 402 kts | 304° |
| 2026-04-15 02:31 | 18.96831 | -67.67561 | 34008 ft | 406 kts | 303° |
| 2026-04-15 02:32 | 19.00221 | -67.72308 | 34008 ft | 408 kts | 303° |
| 2026-04-15 02:32 | 19.03635 | -67.77096 | 34008 ft | 408 kts | 303° |
| 2026-04-15 02:33 | 19.07043 | -67.81886 | 34020 ft | 408 kts | 303° |
| 2026-04-15 02:33 | 19.10465 | -67.86688 | 34008 ft | 409 kts | 304° |
| 2026-04-15 02:34 | 19.13896 | -67.91504 | 34009 ft | 410 kts | 304° |
| 2026-04-15 02:34 | 19.17323 | -67.96328 | 34012 ft | 410 kts | 304° |
| 2026-04-15 02:35 | 19.20732 | -68.01122 | 34014 ft | 410 kts | 304° |
| 2026-04-15 02:35 | 19.24164 | -68.05955 | 34017 ft | 410 kts | 304° |
| 2026-04-15 02:36 | 19.27593 | -68.10788 | 34024 ft | 410 kts | 304° |
| 2026-04-15 02:36 | 19.30996 | -68.15596 | 34024 ft | 410 kts | 304° |
| 2026-04-15 02:37 | 19.34420 | -68.20429 | 34021 ft | 410 kts | 304° |
| 2026-04-15 02:37 | 19.37858 | -68.25280 | 34019 ft | 411 kts | 304° |
| 2026-04-15 02:38 | 19.41293 | -68.30139 | 34017 ft | 411 kts | 304° |
| 2026-04-15 02:38 | 19.44696 | -68.34960 | 34021 ft | 412 kts | 304° |
| 2026-04-15 02:39 | 19.48131 | -68.39825 | 34036 ft | 412 kts | 305° |
| 2026-04-15 02:39 | 19.51571 | -68.44690 | 34029 ft | 413 kts | 305° |
| 2026-04-15 02:40 | 19.55011 | -68.49569 | 34032 ft | 413 kts | 305° |
| 2026-04-15 02:40 | 19.58454 | -68.54454 | 34012 ft | 414 kts | 305° |
| 2026-04-15 02:41 | 19.61905 | -68.59349 | 34014 ft | 414 kts | 305° |
| 2026-04-15 02:41 | 19.65335 | -68.64226 | 34018 ft | 415 kts | 305° |
| 2026-04-15 02:42 | 19.68789 | -68.69150 | 34023 ft | 415 kts | 305° |
| 2026-04-15 02:42 | 19.72239 | -68.74062 | 34027 ft | 415 kts | 305° |
| 2026-04-15 02:43 | 19.75694 | -68.78985 | 34032 ft | 415 kts | 305° |
| 2026-04-15 02:43 | 19.79141 | -68.83912 | 34033 ft | 416 kts | 305° |
| 2026-04-15 02:44 | 19.82579 | -68.88818 | 34014 ft | 416 kts | 306° |
| 2026-04-15 02:44 | 19.86042 | -68.93766 | 34029 ft | 418 kts | 307° |
| 2026-04-15 02:45 | 19.89699 | -68.98574 | 34024 ft | 419 kts | 311° |
| 2026-04-15 02:45 | 19.93628 | -69.03150 | 34028 ft | 419 kts | 312° |
| 2026-04-15 02:46 | 19.97585 | -69.07725 | 34032 ft | 420 kts | 311° |
| 2026-04-15 02:46 | 20.01473 | -69.12361 | 34036 ft | 420 kts | 311° |
| 2026-04-15 02:47 | 20.05306 | -69.17002 | 34038 ft | 420 kts | 311° |
| 2026-04-15 02:47 | 20.09174 | -69.21671 | 34009 ft | 421 kts | 311° |
| 2026-04-15 02:48 | 20.13068 | -69.26346 | 34015 ft | 422 kts | 311° |
| 2026-04-15 02:48 | 20.16965 | -69.31028 | 34019 ft | 423 kts | 311° |
| 2026-04-15 02:49 | 20.20877 | -69.35722 | 34026 ft | 423 kts | 311° |
| 2026-04-15 02:49 | 20.24754 | -69.40386 | 34033 ft | 424 kts | 311° |
| 2026-04-15 02:50 | 20.28663 | -69.45106 | 34037 ft | 424 kts | 311° |
| 2026-04-15 02:50 | 20.32561 | -69.49819 | 34040 ft | 424 kts | 311° |
| 2026-04-15 02:51 | 20.36465 | -69.54542 | 34017 ft | 424 kts | 311° |
| 2026-04-15 02:51 | 20.40351 | -69.59237 | 34018 ft | 425 kts | 311° |
| 2026-04-15 02:52 | 20.44264 | -69.63973 | 34027 ft | 426 kts | 311° |
| 2026-04-15 02:52 | 20.48193 | -69.68728 | 34032 ft | 427 kts | 311° |
| 2026-04-15 02:53 | 20.52123 | -69.73483 | 34036 ft | 427 kts | 311° |
| 2026-04-15 02:53 | 20.56048 | -69.78248 | 34040 ft | 427 kts | 311° |
| 2026-04-15 02:54 | 20.59941 | -69.82982 | 34043 ft | 427 kts | 311° |
| 2026-04-15 02:54 | 20.63873 | -69.87763 | 34026 ft | 428 kts | 311° |
| 2026-04-15 02:55 | 20.67820 | -69.92562 | 34021 ft | 429 kts | 311° |
| 2026-04-15 02:55 | 20.71738 | -69.97335 | 34026 ft | 430 kts | 311° |
| 2026-04-15 02:56 | 20.75688 | -70.02146 | 34037 ft | 430 kts | 311° |
| 2026-04-15 02:56 | 20.79640 | -70.06959 | 34043 ft | 431 kts | 311° |
| 2026-04-15 02:57 | 20.83597 | -70.11787 | 34051 ft | 431 kts | 311° |
| 2026-04-15 02:57 | 20.87523 | -70.16580 | 34050 ft | 431 kts | 311° |
| 2026-04-15 02:58 | 20.91474 | -70.21409 | 34039 ft | 431 kts | 311° |
| 2026-04-15 02:58 | 20.95417 | -70.26238 | 34048 ft | 431 kts | 311° |
| 2026-04-15 02:59 | 20.99377 | -70.31088 | 34047 ft | 432 kts | 311° |
| 2026-04-15 02:59 | 21.03341 | -70.35940 | 34046 ft | 433 kts | 311° |
| 2026-04-15 03:00 | 21.07302 | -70.40795 | 34050 ft | 433 kts | 311° |
| 2026-04-15 03:00 | 21.11244 | -70.45639 | 34060 ft | 433 kts | 311° |
| 2026-04-15 03:01 | 21.15214 | -70.50522 | 34065 ft | 433 kts | 311° |
| 2026-04-15 03:01 | 21.19175 | -70.55395 | 34041 ft | 434 kts | 311° |
| 2026-04-15 03:02 | 21.23139 | -70.60280 | 34043 ft | 434 kts | 311° |
| 2026-04-15 03:02 | 21.27081 | -70.65139 | 34051 ft | 435 kts | 311° |
| 2026-04-15 03:03 | 21.31052 | -70.70039 | 34052 ft | 435 kts | 311° |
| 2026-04-15 03:03 | 21.35028 | -70.74938 | 34068 ft | 435 kts | 311° |
| 2026-04-15 03:04 | 21.39000 | -70.79853 | 34060 ft | 436 kts | 311° |
| 2026-04-15 03:04 | 21.42975 | -70.84775 | 34065 ft | 436 kts | 311° |
| 2026-04-15 03:05 | 21.46922 | -70.89658 | 34059 ft | 436 kts | 311° |
| 2026-04-15 03:05 | 21.50903 | -70.94586 | 34057 ft | 436 kts | 311° |
| 2026-04-15 03:06 | 21.54885 | -70.99516 | 34055 ft | 437 kts | 311° |
| 2026-04-15 03:06 | 21.58693 | -71.04590 | 34058 ft | 437 kts | 304° |
| 2026-04-15 03:07 | 21.62042 | -71.10050 | 34061 ft | 437 kts | 304° |
| 2026-04-15 03:07 | 21.65403 | -71.15506 | 34067 ft | 437 kts | 304° |
| 2026-04-15 03:08 | 21.68740 | -71.20924 | 34079 ft | 437 kts | 304° |
| 2026-04-15 03:08 | 21.72095 | -71.26379 | 34078 ft | 437 kts | 304° |
| 2026-04-15 03:09 | 21.75449 | -71.31838 | 34074 ft | 437 kts | 304° |
| 2026-04-15 03:09 | 21.78795 | -71.37302 | 34076 ft | 436 kts | 304° |
| 2026-04-15 03:10 | 21.82130 | -71.42756 | 34075 ft | 436 kts | 304° |
| 2026-04-15 03:10 | 21.85446 | -71.48175 | 34075 ft | 436 kts | 304° |
| 2026-04-15 03:11 | 21.88784 | -71.53627 | 34081 ft | 435 kts | 304° |
| 2026-04-15 03:11 | 21.92122 | -71.59087 | 34074 ft | 436 kts | 304° |
| 2026-04-15 03:12 | 21.95453 | -71.64547 | 34073 ft | 436 kts | 304° |
| 2026-04-15 03:12 | 21.98764 | -71.69982 | 34060 ft | 437 kts | 304° |
| 2026-04-15 03:13 | 22.02089 | -71.75462 | 34075 ft | 436 kts | 304° |
| 2026-04-15 03:13 | 22.05425 | -71.80949 | 34081 ft | 436 kts | 304° |
| 2026-04-15 03:14 | 22.08189 | -71.85493 | 34098 ft | 435 kts | 304° |
| 2026-04-15 03:14 | 22.11506 | -71.90954 | 34091 ft | 434 kts | 304° |
| 2026-04-15 03:15 | 22.15350 | -71.97302 | 34080 ft | 435 kts | 304° |
| 2026-04-15 03:15 | 22.18101 | -72.01849 | 34077 ft | 435 kts | 304° |
| 2026-04-15 03:16 | 22.21417 | -72.07328 | 34074 ft | 436 kts | 303° |
| 2026-04-15 03:16 | 22.24742 | -72.12815 | 34092 ft | 436 kts | 304° |
| 2026-04-15 03:17 | 22.28056 | -72.18293 | 34091 ft | 435 kts | 304° |
| 2026-04-15 03:17 | 22.31355 | -72.23767 | 34106 ft | 434 kts | 304° |
| 2026-04-15 03:18 | 22.34621 | -72.29190 | 34102 ft | 433 kts | 303° |
| 2026-04-15 03:18 | 22.37917 | -72.34667 | 34091 ft | 433 kts | 303° |
| 2026-04-15 03:19 | 22.41208 | -72.40139 | 34093 ft | 437 kts | 303° |
| 2026-04-15 03:19 | 22.44523 | -72.45657 | 34088 ft | 436 kts | 303° |
| 2026-04-15 03:20 | 22.47795 | -72.51117 | 34088 ft | 432 kts | 303° |
| 2026-04-15 03:20 | 22.51068 | -72.56586 | 34095 ft | 433 kts | 303° |
| 2026-04-15 03:21 | 22.54427 | -72.61994 | 34102 ft | 432 kts | 307° |
| 2026-04-15 03:21 | 22.59916 | -72.69736 | 34108 ft | 432 kts | 308° |
| 2026-04-15 03:22 | 22.63572 | -72.74859 | 34098 ft | 433 kts | 308° |
| 2026-04-15 03:22 | 22.67195 | -72.80063 | 34107 ft | 433 kts | 308° |
| 2026-04-15 03:23 | 22.70796 | -72.85280 | 34129 ft | 432 kts | 308° |
| 2026-04-15 03:23 | 22.74395 | -72.90490 | 34119 ft | 432 kts | 308° |
| 2026-04-15 03:24 | 22.77997 | -72.95705 | 34103 ft | 432 kts | 307° |
| 2026-04-15 03:24 | 22.81614 | -73.00920 | 34111 ft | 432 kts | 307° |
| 2026-04-15 03:25 | 22.85207 | -73.06095 | 34129 ft | 432 kts | 308° |
| 2026-04-15 03:25 | 22.88803 | -73.11307 | 34128 ft | 431 kts | 307° |
| 2026-04-15 03:26 | 22.92392 | -73.16521 | 34124 ft | 431 kts | 307° |
| 2026-04-15 03:26 | 22.95991 | -73.21743 | 34125 ft | 432 kts | 307° |
| 2026-04-15 03:27 | 22.99562 | -73.26924 | 34129 ft | 431 kts | 307° |
| 2026-04-15 03:27 | 23.03146 | -73.32141 | 34131 ft | 430 kts | 307° |
| 2026-04-15 03:28 | 23.06720 | -73.37354 | 34130 ft | 430 kts | 307° |
| 2026-04-15 03:28 | 23.10302 | -73.42575 | 34114 ft | 432 kts | 307° |
| 2026-04-15 03:29 | 23.13892 | -73.47804 | 34121 ft | 431 kts | 307° |
| 2026-04-15 03:29 | 23.17480 | -73.53038 | 34136 ft | 431 kts | 307° |
| 2026-04-15 03:30 | 23.21049 | -73.58261 | 34140 ft | 430 kts | 307° |
| 2026-04-15 03:30 | 23.24596 | -73.63451 | 34140 ft | 430 kts | 307° |
| 2026-04-15 03:31 | 23.28161 | -73.68684 | 34139 ft | 430 kts | 307° |
| 2026-04-15 03:31 | 23.31727 | -73.73910 | 34142 ft | 430 kts | 307° |
| 2026-04-15 03:32 | 23.35291 | -73.79134 | 34143 ft | 429 kts | 307° |
| 2026-04-15 03:32 | 23.38846 | -73.84362 | 34144 ft | 430 kts | 307° |
| 2026-04-15 03:33 | 23.42407 | -73.89599 | 34146 ft | 430 kts | 307° |
| 2026-04-15 03:33 | 23.45943 | -73.94799 | 34144 ft | 430 kts | 307° |
| 2026-04-15 03:34 | 23.49498 | -74.00040 | 34148 ft | 429 kts | 307° |
| 2026-04-15 03:34 | 23.53052 | -74.05270 | 34141 ft | 429 kts | 307° |
| 2026-04-15 03:35 | 23.56607 | -74.10519 | 34146 ft | 430 kts | 307° |
| 2026-04-15 03:35 | 23.60159 | -74.15769 | 34151 ft | 430 kts | 307° |
| 2026-04-15 03:36 | 23.63679 | -74.20988 | 34156 ft | 430 kts | 307° |
| 2026-04-15 03:36 | 23.67219 | -74.26237 | 34159 ft | 429 kts | 307° |
| 2026-04-15 03:37 | 23.70761 | -74.31487 | 34158 ft | 429 kts | 307° |
| 2026-04-15 03:37 | 23.74303 | -74.36740 | 34154 ft | 430 kts | 307° |
| 2026-04-15 03:38 | 23.77844 | -74.42001 | 34155 ft | 430 kts | 307° |
| 2026-04-15 03:38 | 23.81385 | -74.47257 | 34163 ft | 429 kts | 307° |
| 2026-04-15 03:39 | 23.84914 | -74.52518 | 34170 ft | 429 kts | 307° |
| 2026-04-15 03:39 | 23.88421 | -74.57751 | 34169 ft | 429 kts | 307° |
| 2026-04-15 03:40 | 23.91951 | -74.63021 | 34186 ft | 430 kts | 307° |
| 2026-04-15 03:40 | 23.95484 | -74.68287 | 34188 ft | 429 kts | 307° |
| 2026-04-15 03:41 | 23.99003 | -74.73554 | 34185 ft | 429 kts | 307° |
| 2026-04-15 03:41 | 24.02520 | -74.78826 | 34183 ft | 429 kts | 307° |
| 2026-04-15 03:42 | 24.06044 | -74.84105 | 34177 ft | 430 kts | 307° |
| 2026-04-15 03:42 | 24.09569 | -74.89388 | 34173 ft | 429 kts | 307° |
| 2026-04-15 03:43 | 24.13087 | -74.94669 | 34175 ft | 429 kts | 307° |
| 2026-04-15 03:43 | 24.16602 | -74.99952 | 34176 ft | 429 kts | 307° |
| 2026-04-15 03:44 | 24.20114 | -75.05233 | 34175 ft | 429 kts | 307° |
| 2026-04-15 03:44 | 24.23610 | -75.10504 | 34164 ft | 430 kts | 306° |
| 2026-04-15 03:45 | 24.27124 | -75.15801 | 34175 ft | 430 kts | 306° |
| 2026-04-15 03:45 | 24.30637 | -75.21101 | 34183 ft | 430 kts | 306° |
| 2026-04-15 03:46 | 24.34140 | -75.26411 | 34182 ft | 430 kts | 306° |
| 2026-04-15 03:46 | 24.37648 | -75.31723 | 34176 ft | 430 kts | 306° |
| 2026-04-15 03:47 | 24.41162 | -75.37042 | 34173 ft | 430 kts | 306° |
| 2026-04-15 03:47 | 24.44673 | -75.42357 | 34181 ft | 430 kts | 306° |
| 2026-04-15 03:48 | 24.48163 | -75.47647 | 34167 ft | 431 kts | 306° |
| 2026-04-15 03:48 | 24.51677 | -75.52988 | 34167 ft | 432 kts | 306° |
| 2026-04-15 03:49 | 24.55194 | -75.58343 | 34172 ft | 432 kts | 306° |
| 2026-04-15 03:49 | 24.58714 | -75.63704 | 34178 ft | 432 kts | 306° |
| 2026-04-15 03:50 | 24.62232 | -75.69068 | 34177 ft | 433 kts | 306° |
| 2026-04-15 03:50 | 24.65748 | -75.74444 | 34187 ft | 433 kts | 306° |
| 2026-04-15 03:51 | 24.69258 | -75.79814 | 34179 ft | 433 kts | 306° |
| 2026-04-15 03:51 | 24.72775 | -75.85184 | 34186 ft | 433 kts | 306° |
| 2026-04-15 03:52 | 24.76270 | -75.90536 | 34188 ft | 433 kts | 306° |
| 2026-04-15 03:52 | 24.79783 | -75.95917 | 34184 ft | 433 kts | 306° |
| 2026-04-15 03:53 | 24.83297 | -76.01296 | 34184 ft | 433 kts | 306° |
| 2026-04-15 03:53 | 24.86806 | -76.06690 | 34187 ft | 433 kts | 306° |
| 2026-04-15 03:54 | 24.90313 | -76.12087 | 34190 ft | 433 kts | 306° |
| 2026-04-15 03:55 | 24.95548 | -76.20160 | 34180 ft | 434 kts | 306° |
| 2026-04-15 03:55 | 24.99062 | -76.25584 | 34175 ft | 435 kts | 306° |
| 2026-04-15 03:56 | 25.02578 | -76.31009 | 34190 ft | 435 kts | 306° |
| 2026-04-15 03:56 | 25.06098 | -76.36444 | 34185 ft | 435 kts | 306° |
| 2026-04-15 03:57 | 25.09613 | -76.41883 | 34187 ft | 435 kts | 306° |
| 2026-04-15 03:57 | 25.13124 | -76.47328 | 34189 ft | 436 kts | 306° |
| 2026-04-15 03:58 | 25.16608 | -76.52748 | 34196 ft | 436 kts | 306° |
| 2026-04-15 03:58 | 25.20123 | -76.58197 | 34200 ft | 435 kts | 306° |
| 2026-04-15 03:59 | 25.23632 | -76.63639 | 34204 ft | 435 kts | 306° |
| 2026-04-15 03:59 | 25.27130 | -76.69092 | 34202 ft | 435 kts | 306° |
| 2026-04-15 04:00 | 25.30630 | -76.74550 | 34198 ft | 435 kts | 306° |
| 2026-04-15 04:00 | 25.34128 | -76.80006 | 34201 ft | 435 kts | 306° |
| 2026-04-15 04:01 | 25.37623 | -76.85461 | 34199 ft | 435 kts | 307° |
| 2026-04-15 04:01 | 25.41120 | -76.90929 | 34186 ft | 436 kts | 307° |
| 2026-04-15 04:02 | 25.44597 | -76.96380 | 34183 ft | 436 kts | 307° |
| 2026-04-15 04:02 | 25.48103 | -77.01873 | 34187 ft | 437 kts | 307° |
| 2026-04-15 04:03 | 25.51614 | -77.07377 | 34197 ft | 437 kts | 307° |
| 2026-04-15 04:03 | 25.55123 | -77.12888 | 34196 ft | 437 kts | 307° |
| 2026-04-15 04:04 | 25.58627 | -77.18406 | 34202 ft | 438 kts | 307° |
| 2026-04-15 04:04 | 25.62131 | -77.23925 | 34197 ft | 438 kts | 307° |
| 2026-04-15 04:05 | 25.65616 | -77.29420 | 34200 ft | 438 kts | 307° |
| 2026-04-15 04:05 | 25.69119 | -77.34949 | 34206 ft | 438 kts | 307° |
| 2026-04-15 04:06 | 25.72622 | -77.40483 | 34204 ft | 439 kts | 307° |
| 2026-04-15 04:06 | 25.76137 | -77.46043 | 34196 ft | 441 kts | 307° |
| 2026-04-15 04:07 | 25.79664 | -77.51632 | 34198 ft | 442 kts | 307° |
| 2026-04-15 04:07 | 25.83192 | -77.57230 | 34202 ft | 443 kts | 307° |
| 2026-04-15 04:08 | 25.86722 | -77.62829 | 34197 ft | 443 kts | 307° |
| 2026-04-15 04:08 | 25.89656 | -77.67487 | 34203 ft | 443 kts | 307° |
| 2026-04-15 04:09 | 25.93184 | -77.73106 | 34207 ft | 443 kts | 307° |
| 2026-04-15 04:09 | 25.96711 | -77.78724 | 34211 ft | 443 kts | 307° |
| 2026-04-15 04:10 | 26.00236 | -77.84352 | 34218 ft | 444 kts | 307° |
| 2026-04-15 04:10 | 26.03755 | -77.89991 | 34221 ft | 444 kts | 307° |
| 2026-04-15 04:11 | 26.07283 | -77.95626 | 34215 ft | 444 kts | 307° |
| 2026-04-15 04:11 | 26.10819 | -78.01279 | 34206 ft | 445 kts | 307° |
| 2026-04-15 04:12 | 26.14335 | -78.06911 | 34209 ft | 446 kts | 307° |
| 2026-04-15 04:12 | 26.17876 | -78.12588 | 34217 ft | 446 kts | 307° |
| 2026-04-15 04:13 | 26.21419 | -78.18290 | 34230 ft | 447 kts | 307° |
| 2026-04-15 04:13 | 26.24954 | -78.23989 | 34231 ft | 447 kts | 307° |
| 2026-04-15 04:14 | 26.28474 | -78.29663 | 34225 ft | 447 kts | 307° |
| 2026-04-15 04:14 | 26.32009 | -78.35365 | 34227 ft | 446 kts | 307° |
| 2026-04-15 04:15 | 26.35534 | -78.41068 | 34225 ft | 446 kts | 307° |
| 2026-04-15 04:15 | 26.39066 | -78.46765 | 34234 ft | 446 kts | 307° |
| 2026-04-15 04:16 | 26.42574 | -78.52435 | 34229 ft | 447 kts | 307° |
| 2026-04-15 04:16 | 26.46106 | -78.58157 | 34235 ft | 447 kts | 307° |
| 2026-04-15 04:17 | 26.49630 | -78.63886 | 34247 ft | 448 kts | 307° |
| 2026-04-15 04:17 | 26.53161 | -78.69630 | 34239 ft | 448 kts | 307° |
| 2026-04-15 04:18 | 26.56698 | -78.75379 | 34219 ft | 449 kts | 307° |
| 2026-04-15 04:18 | 26.60209 | -78.81105 | 34228 ft | 449 kts | 307° |
| 2026-04-15 04:19 | 26.63749 | -78.86874 | 34228 ft | 450 kts | 307° |
| 2026-04-15 04:19 | 26.67282 | -78.92644 | 34233 ft | 450 kts | 307° |
| 2026-04-15 04:20 | 26.70818 | -78.98428 | 34246 ft | 450 kts | 307° |
| 2026-04-15 04:20 | 26.74329 | -79.04179 | 34239 ft | 450 kts | 307° |
| 2026-04-15 04:21 | 26.77859 | -79.09962 | 34224 ft | 450 kts | 307° |
| 2026-04-15 04:21 | 26.81390 | -79.15761 | 34219 ft | 451 kts | 307° |
| 2026-04-15 04:22 | 26.84922 | -79.21575 | 34227 ft | 451 kts | 307° |
| 2026-04-15 04:22 | 26.88461 | -79.27401 | 34229 ft | 452 kts | 307° |
| 2026-04-15 04:23 | 26.91979 | -79.33195 | 34230 ft | 452 kts | 307° |
| 2026-04-15 04:23 | 26.95512 | -79.39032 | 34237 ft | 452 kts | 307° |
| 2026-04-15 04:24 | 26.99036 | -79.44863 | 34219 ft | 452 kts | 307° |
| 2026-04-15 04:24 | 27.02560 | -79.50698 | 34223 ft | 452 kts | 307° |
| 2026-04-15 04:25 | 27.06082 | -79.56548 | 34225 ft | 452 kts | 307° |
| 2026-04-15 04:25 | 27.09621 | -79.62404 | 34225 ft | 452 kts | 307° |
| 2026-04-15 04:26 | 27.13148 | -79.68250 | 34226 ft | 453 kts | 307° |
| 2026-04-15 04:26 | 27.16645 | -79.74076 | 34226 ft | 453 kts | 307° |
| 2026-04-15 04:27 | 27.20165 | -79.79951 | 34223 ft | 453 kts | 307° |
| 2026-04-15 04:27 | 27.23690 | -79.85837 | 34227 ft | 453 kts | 307° |
| 2026-04-15 04:28 | 27.27218 | -79.91722 | 34229 ft | 454 kts | 307° |
| 2026-04-15 04:28 | 27.30745 | -79.97617 | 34233 ft | 454 kts | 307° |
| 2026-04-15 04:29 | 27.34268 | -80.03514 | 33896 ft | 454 kts | 307° |
| 2026-04-15 04:29 | 27.36031 | -80.06460 | 33640 ft | 454 kts | 307° |
| 2026-04-15 04:29 | 27.37791 | -80.09403 | 33390 ft | 454 kts | 307° |
| 2026-04-15 04:29 | 27.39529 | -80.12320 | 33127 ft | 454 kts | 307° |
| 2026-04-15 04:30 | 27.41287 | -80.15285 | 32873 ft | 455 kts | 306° |
| 2026-04-15 04:30 | 27.43041 | -80.18248 | 32622 ft | 456 kts | 306° |
| 2026-04-15 04:30 | 27.44804 | -80.21220 | 32374 ft | 456 kts | 306° |
| 2026-04-15 04:30 | 27.46570 | -80.24196 | 32129 ft | 457 kts | 306° |
| 2026-04-15 04:31 | 27.48341 | -80.27176 | 31874 ft | 457 kts | 306° |
| 2026-04-15 04:31 | 27.50114 | -80.30159 | 31647 ft | 458 kts | 306° |
| 2026-04-15 04:31 | 27.51887 | -80.33146 | 31408 ft | 458 kts | 306° |
| 2026-04-15 04:31 | 27.53657 | -80.36131 | 31168 ft | 459 kts | 306° |
| 2026-04-15 04:32 | 27.55339 | -80.38966 | 30929 ft | 459 kts | 306° |
| 2026-04-15 04:32 | 27.57034 | -80.41829 | 30318 ft | 457 kts | 306° |
| 2026-04-15 04:32 | 27.58432 | -80.44192 | 29773 ft | 453 kts | 306° |
| 2026-04-15 04:32 | 27.60169 | -80.47141 | 29156 ft | 448 kts | 306° |
| 2026-04-15 04:33 | 27.61879 | -80.50046 | 28538 ft | 443 kts | 306° |
| 2026-04-15 04:33 | 27.63236 | -80.52348 | 28042 ft | 440 kts | 306° |
| 2026-04-15 04:33 | 27.64924 | -80.55210 | 27427 ft | 436 kts | 306° |
| 2026-04-15 04:33 | 27.66595 | -80.58047 | 26821 ft | 432 kts | 305° |
| 2026-04-15 04:34 | 27.68252 | -80.60860 | 26223 ft | 429 kts | 305° |
| 2026-04-15 04:34 | 27.69901 | -80.63656 | 25590 ft | 426 kts | 305° |
| 2026-04-15 04:34 | 27.71535 | -80.66427 | 25021 ft | 423 kts | 305° |
| 2026-04-15 04:34 | 27.73159 | -80.69186 | 24443 ft | 420 kts | 305° |
| 2026-04-15 04:35 | 27.74770 | -80.71923 | 23874 ft | 417 kts | 305° |
| 2026-04-15 04:35 | 27.76369 | -80.74648 | 23263 ft | 414 kts | 304° |
| 2026-04-15 04:35 | 27.77950 | -80.77342 | 22738 ft | 409 kts | 304° |
| 2026-04-15 04:35 | 27.79497 | -80.79981 | 22241 ft | 405 kts | 304° |
| 2026-04-15 04:36 | 27.81042 | -80.82621 | 21738 ft | 401 kts | 304° |
| 2026-04-15 04:36 | 27.82562 | -80.85217 | 21254 ft | 393 kts | 304° |
| 2026-04-15 04:36 | 27.84062 | -80.87775 | 20759 ft | 390 kts | 304° |
| 2026-04-15 04:36 | 27.85556 | -80.90324 | 20264 ft | 388 kts | 304° |
| 2026-04-15 04:37 | 27.87041 | -80.92860 | 19761 ft | 386 kts | 304° |
| 2026-04-15 04:37 | 27.88521 | -80.95390 | 19245 ft | 384 kts | 304° |
| 2026-04-15 04:37 | 27.89990 | -80.97905 | 18724 ft | 383 kts | 304° |
| 2026-04-15 04:37 | 27.91462 | -81.00409 | 18034 ft | 383 kts | 306° |
| 2026-04-15 04:38 | 27.93197 | -81.02637 | 17331 ft | 370 kts | 319° |
| 2026-04-15 04:38 | 27.95228 | -81.04367 | 16804 ft | 364 kts | 329° |
| 2026-04-15 04:38 | 27.97509 | -81.05609 | 16261 ft | 362 kts | 339° |
| 2026-04-15 04:38 | 27.99861 | -81.06603 | 15717 ft | 360 kts | 339° |
| 2026-04-15 04:39 | 28.02203 | -81.07585 | 15191 ft | 358 kts | 339° |
| 2026-04-15 04:39 | 28.04540 | -81.08567 | 14650 ft | 357 kts | 339° |
| 2026-04-15 04:39 | 28.06861 | -81.09548 | 14114 ft | 356 kts | 339° |
| 2026-04-15 04:39 | 28.09178 | -81.10532 | 13529 ft | 354 kts | 339° |
| 2026-04-15 04:40 | 28.11474 | -81.11530 | 12994 ft | 351 kts | 338° |
| 2026-04-15 04:40 | 28.13748 | -81.12535 | 12456 ft | 349 kts | 338° |
| 2026-04-15 04:40 | 28.15998 | -81.13536 | 11945 ft | 347 kts | 338° |
| 2026-04-15 04:40 | 28.18235 | -81.14530 | 11495 ft | 343 kts | 338° |
| 2026-04-15 04:41 | 28.20412 | -81.15495 | 11372 ft | 329 kts | 338° |
| 2026-04-15 04:41 | 28.22492 | -81.16413 | 11243 ft | 311 kts | 338° |
| 2026-04-15 04:41 | 28.24465 | -81.17285 | 10806 ft | 300 kts | 338° |
| 2026-04-15 04:41 | 28.26382 | -81.18111 | 10536 ft | 294 kts | 342° |
| 2026-04-15 04:42 | 28.28373 | -81.18546 | 10315 ft | 297 kts | 356° |
| 2026-04-15 04:42 | 28.30431 | -81.18587 | 9994 ft | 297 kts | 359° |
| 2026-04-15 04:42 | 28.32518 | -81.18621 | 9552 ft | 299 kts | 359° |
| 2026-04-15 04:42 | 28.34582 | -81.18658 | 9339 ft | 292 kts | 359° |
| 2026-04-15 04:43 | 28.36579 | -81.18693 | 9210 ft | 282 kts | 360° |
| 2026-04-15 04:43 | 28.38512 | -81.18727 | 9087 ft | 273 kts | 360° |
| 2026-04-15 04:43 | 28.40383 | -81.18758 | 8956 ft | 265 kts | 0° |
| 2026-04-15 04:43 | 28.42206 | -81.18778 | 8761 ft | 260 kts | 0° |
| 2026-04-15 04:44 | 28.44002 | -81.18791 | 8327 ft | 256 kts | 1° |
| 2026-04-15 04:44 | 28.45776 | -81.18806 | 7832 ft | 254 kts | 1° |
| 2026-04-15 04:44 | 28.47524 | -81.18817 | 7458 ft | 247 kts | 2° |
| 2026-04-15 04:44 | 28.49290 | -81.18821 | 6828 ft | 261 kts | 2° |
| 2026-04-15 04:45 | 28.51157 | -81.18829 | 6250 ft | 271 kts | 2° |
| 2026-04-15 04:45 | 28.53039 | -81.18850 | 5971 ft | 269 kts | 1° |
| 2026-04-15 04:45 | 28.54887 | -81.18882 | 5783 ft | 262 kts | 1° |
| 2026-04-15 04:45 | 28.56696 | -81.18914 | 5603 ft | 256 kts | 1° |
| 2026-04-15 04:46 | 28.58452 | -81.18939 | 5397 ft | 250 kts | 1° |
| 2026-04-15 04:46 | 28.62171 | -81.18964 | 3828 ft | 285 kts | 1° |
| 2026-04-15 04:46 | 28.64200 | -81.18987 | 3193 ft | 294 kts | 1° |
| 2026-04-15 04:47 | 28.66214 | -81.19095 | 3023 ft | 286 kts | 351° |
| 2026-04-15 04:47 | 28.67985 | -81.19976 | 2980 ft | 274 kts | 322° |
| 2026-04-15 04:47 | 28.69123 | -81.21609 | 2989 ft | 258 kts | 292° |
| 2026-04-15 04:47 | 28.69390 | -81.23531 | 2989 ft | 239 kts | 260° |
| 2026-04-15 04:48 | 28.68789 | -81.25174 | 2989 ft | 217 kts | 228° |
| 2026-04-15 04:48 | 28.67770 | -81.26409 | 2991 ft | 213 kts | 221° |
| 2026-04-15 04:48 | 28.66686 | -81.27535 | 2990 ft | 214 kts | 213° |
| 2026-04-15 04:48 | 28.65455 | -81.28524 | 2992 ft | 214 kts | 211° |
| 2026-04-15 04:49 | 28.64246 | -81.29464 | 2993 ft | 213 kts | 211° |
| 2026-04-15 04:49 | 28.63013 | -81.30414 | 3001 ft | 214 kts | 211° |
| 2026-04-15 04:49 | 28.61781 | -81.31359 | 2995 ft | 213 kts | 211° |
| 2026-04-15 04:49 | 28.60590 | -81.32252 | 3024 ft | 194 kts | 205° |
| 2026-04-15 04:50 | 28.59394 | -81.32739 | 2929 ft | 173 kts | 183° |
| 2026-04-15 04:50 | 28.58270 | -81.32809 | 2724 ft | 153 kts | 176° |
| 2026-04-15 04:50 | 28.57255 | -81.32818 | 2522 ft | 141 kts | 175° |
| 2026-04-15 04:50 | 28.56295 | -81.32816 | 2346 ft | 136 kts | 174° |
| 2026-04-15 04:51 | 28.55360 | -81.32809 | 2163 ft | 133 kts | 173° |
| 2026-04-15 04:51 | 28.54444 | -81.32800 | 1995 ft | 131 kts | 173° |
| 2026-04-15 04:51 | 28.53533 | -81.32791 | 1820 ft | 131 kts | 173° |
| 2026-04-15 04:51 | 28.52619 | -81.32781 | 1643 ft | 131 kts | 173° |
| 2026-04-15 04:52 | 28.51704 | -81.32772 | 1468 ft | 131 kts | 173° |
| 2026-04-15 04:52 | 28.50793 | -81.32762 | 1296 ft | 131 kts | 174° |
| 2026-04-15 04:52 | 28.49880 | -81.32752 | 1122 ft | 131 kts | 174° |
| 2026-04-15 04:52 | 28.49277 | -81.32746 | 1009 ft | 131 kts | 175° |
| 2026-04-15 04:53 | 28.48351 | -81.32735 | 844 ft | 134 kts | 175° |
| 2026-04-15 04:53 | 28.47413 | -81.32725 | 666 ft | 137 kts | 176° |
| 2026-04-15 04:53 | 28.46152 | -81.32715 | 408 ft | 136 kts | 177° |
| 2026-04-15 04:53 | 28.45512 | -81.32711 | 297 ft | 136 kts | 176° |
| 2026-04-15 04:54 | 28.44568 | -81.32695 | 139 ft | 136 kts | 177° |
| 2026-04-15 04:54 | 28.43725 | -81.32685 | 100 ft | 100 kts | 179° |
| 2026-04-15 04:54 | 28.43176 | -81.32680 | 101 ft | 68 kts | 179° |
| 2026-04-15 04:54 | 28.42799 | -81.32677 | 101 ft | 41 kts | 179° |
| 2026-04-15 04:55 | 28.42607 | -81.32586 | 99 ft | 24 kts | 123° |
| 2026-04-15 04:55 | 28.42524 | -81.32424 | 101 ft | 24 kts | 120° |
| 2026-04-15 04:55 | 28.42439 | -81.32255 | 105 ft | 25 kts | 121° |
| 2026-04-15 04:55 | 28.42351 | -81.32087 | 105 ft | 22 kts | 129° |
| 2026-04-15 04:56 | 28.42234 | -81.31986 | 101 ft | 23 kts | 179° |
| 2026-04-15 04:56 | 28.42064 | -81.31984 | 98 ft | 26 kts | 179° |
| 2026-04-15 04:56 | 28.41884 | -81.31982 | 100 ft | 27 kts | 179° |
| 2026-04-15 04:56 | 28.41690 | -81.31981 | 98 ft | 29 kts | 179° |
| 2026-04-15 04:57 | 28.41546 | -81.31945 | 98 ft | 13 kts | 114° |
| 2026-04-15 04:57 | 28.41476 | -81.31910 | 99 ft | 13 kts | 178° |
| 2026-04-15 04:57 | 28.41385 | -81.31910 | 98 ft | 14 kts | 180° |
| 2026-04-15 04:57 | 28.41331 | -81.31866 | 99 ft | 11 kts | 93° |
| 2026-04-15 04:58 | 28.41331 | -81.31760 | 96 ft | 17 kts | 90° |
| 2026-04-15 04:58 | 28.41335 | -81.31618 | 95 ft | 16 kts | 75° |
| 2026-04-15 04:58 | 28.41414 | -81.31564 | 94 ft | 13 kts | 7° |
| 2026-04-15 04:58 | 28.41515 | -81.31551 | 94 ft | 12 kts | 9° |
| 2026-04-15 04:59 | 28.41556 | -81.31544 | 95 ft | 0 kts | 10° |
| 2026-04-15 04:59 | 28.41576 | -81.31527 | 94 ft | 8 kts | 54° |
| 2026-04-15 04:59 | 28.41567 | -81.31480 | 94 ft | 1 kts | 101° |
| 2026-04-15 04:59 | 28.41564 | -81.31461 | 96 ft | 3 kts | 100° |
| 2026-04-15 05:00 | 28.41561 | -81.31443 | 94 ft | 0 kts | 100° |